createdAt,value
2022-11-03T00:01:52.264Z,20.03
2022-11-03T00:04:22.818Z,20.06
2022-11-03T00:06:54.471Z,20.11
2022-11-03T00:09:24.522Z,20.15
2022-11-03T00:11:53.217Z,20.18
2022-11-03T00:14:21.768Z,20.21
2022-11-03T00:16:50.624Z,20.24
2022-11-03T00:19:18.975Z,20.27
2022-11-03T00:21:47.799Z,20.29
2022-11-03T00:24:16.123Z,20.34
2022-11-03T00:26:44.487Z,20.40
2022-11-03T00:29:15.161Z,20.46
2022-11-03T00:31:45.543Z,20.53
2022-11-03T00:34:14.024Z,20.58
2022-11-03T00:36:44.461Z,20.63
2022-11-03T00:39:13.982Z,20.70
2022-11-03T00:41:42.713Z,20.77
2022-11-03T00:44:11.921Z,20.83
2022-11-03T00:46:40.417Z,20.88
2022-11-03T00:49:10.283Z,20.94
2022-11-03T00:51:38.662Z,20.99
2022-11-03T00:54:08.295Z,21.06
2022-11-03T00:56:41.950Z,21.12
2022-11-03T00:59:11.280Z,21.18
2022-11-03T01:01:47.711Z,21.22
2022-11-03T01:04:36.719Z,21.26
2022-11-03T01:07:06.959Z,21.29
2022-11-03T01:09:35.222Z,21.31
2022-11-03T01:12:15.032Z,21.32
2022-11-03T01:14:50.822Z,21.32
2022-11-03T01:17:27.144Z,21.33
2022-11-03T01:19:56.858Z,21.34
2022-11-03T01:22:25.950Z,21.34
2022-11-03T01:24:54.270Z,21.36
2022-11-03T01:27:25.773Z,21.38
2022-11-03T01:29:54.076Z,21.40
2022-11-03T01:32:22.381Z,21.42
2022-11-03T01:34:50.806Z,21.46
2022-11-03T01:37:19.128Z,21.50
2022-11-03T01:39:47.423Z,21.54
2022-11-03T01:42:15.807Z,21.60
2022-11-03T01:44:49.522Z,21.66
2022-11-03T01:47:31.063Z,21.73
2022-11-03T01:50:07.519Z,21.79
2022-11-03T01:52:49.773Z,21.88
2022-11-03T01:55:23.864Z,21.98
2022-11-03T01:57:55.746Z,22.07
2022-11-03T02:00:24.109Z,22.15
2022-11-03T02:02:52.794Z,22.25
2022-11-03T02:05:24.437Z,22.32
2022-11-03T02:08:15.670Z,22.43
2022-11-03T02:10:44.293Z,22.52
2022-11-03T02:13:19.994Z,22.60
2022-11-03T02:15:54.772Z,22.71
2022-11-03T02:18:28.556Z,22.80
2022-11-03T02:21:26.163Z,22.88
2022-11-03T02:24:03.461Z,22.99
2022-11-03T02:26:32.458Z,23.10
2022-11-03T02:29:00.831Z,23.18
2022-11-03T02:31:52.001Z,23.25
2022-11-03T02:34:40.050Z,23.35
2022-11-03T02:37:22.546Z,23.43
2022-11-03T02:40:02.401Z,23.50
2022-11-03T02:42:32.465Z,23.56
2022-11-03T02:45:04.836Z,23.63
2022-11-03T02:47:34.731Z,23.70
2022-11-03T02:50:09.392Z,23.78
2022-11-03T02:52:47.186Z,23.86
2022-11-03T02:55:36.819Z,23.94
2022-11-03T02:58:19.610Z,24.03
2022-11-03T03:01:05.580Z,24.10
2022-11-03T03:03:50.274Z,24.18
2022-11-03T03:06:31.259Z,24.24
2022-11-03T03:09:06.120Z,24.31
2022-11-03T03:11:40.362Z,24.37
2022-11-03T03:14:21.995Z,24.45
2022-11-03T03:17:00.335Z,24.52
2022-11-03T03:19:39.129Z,24.58
2022-11-03T03:22:20.062Z,24.65
2022-11-03T03:25:11.393Z,24.72
2022-11-03T03:27:45.536Z,24.79
2022-11-03T03:30:14.519Z,24.85
2022-11-03T03:32:48.001Z,24.91
2022-11-03T03:35:24.389Z,24.99
2022-11-03T03:37:58.202Z,25.05
2022-11-03T03:40:32.052Z,25.14
2022-11-03T03:43:02.587Z,25.20
2022-11-03T03:45:32.790Z,25.25
2022-11-03T03:48:01.663Z,25.29
2022-11-03T03:50:34.214Z,25.36
2022-11-03T03:53:05.925Z,25.41
2022-11-03T03:55:40.523Z,25.45
2022-11-03T03:58:11.061Z,25.49
2022-11-03T04:00:41.114Z,25.55
2022-11-03T04:03:21.902Z,25.62
2022-11-03T04:05:50.724Z,25.67
2022-11-03T04:08:19.509Z,25.74
2022-11-03T04:11:06.678Z,25.78
2022-11-03T04:13:53.607Z,25.87
2022-11-03T04:16:40.314Z,25.92
2022-11-03T04:19:30.975Z,25.97
2022-11-03T04:22:17.729Z,26.02
2022-11-03T04:24:48.502Z,26.09
2022-11-03T04:27:28.790Z,26.13
2022-11-03T04:30:10.918Z,26.19
2022-11-03T04:32:39.392Z,26.26
2022-11-03T04:35:17.612Z,26.31
2022-11-03T04:37:52.151Z,26.36
2022-11-03T04:40:20.715Z,26.42
2022-11-03T04:42:49.453Z,26.45
2022-11-03T04:45:39.282Z,26.49
2022-11-03T04:48:35.071Z,26.57
2022-11-03T04:51:12.463Z,26.59
2022-11-03T04:54:04.602Z,26.62
2022-11-03T04:56:33.057Z,26.66
2022-11-03T04:59:01.410Z,26.71
2022-11-03T05:01:31.207Z,26.74
2022-11-03T05:03:59.739Z,26.79
2022-11-03T05:06:31.480Z,26.83
2022-11-03T05:09:22.515Z,26.87
2022-11-03T05:11:51.126Z,26.90
2022-11-03T05:14:31.710Z,26.94
2022-11-03T05:17:02.983Z,26.96
2022-11-03T05:19:44.055Z,27.00
2022-11-03T05:22:22.084Z,27.04
2022-11-03T05:24:57.903Z,27.06
2022-11-03T05:27:26.749Z,27.09
2022-11-03T05:30:00.815Z,27.15
2022-11-03T05:32:35.509Z,27.19
2022-11-03T05:35:05.121Z,27.24
2022-11-03T05:37:35.597Z,27.24
2022-11-03T05:40:06.348Z,27.26
2022-11-03T05:42:39.010Z,27.28
2022-11-03T05:45:34.618Z,27.31
2022-11-03T05:48:05.521Z,27.33
2022-11-03T05:50:37.515Z,27.38
2022-11-03T05:53:16.594Z,27.39
2022-11-03T05:55:45.478Z,27.43
2022-11-03T05:58:25.485Z,27.43
2022-11-03T06:00:55.814Z,27.47
2022-11-03T06:03:30.708Z,27.47
2022-11-03T06:06:01.402Z,27.48
2022-11-03T06:08:38.994Z,27.50
2022-11-03T06:11:17.391Z,27.54
2022-11-03T06:13:45.755Z,27.53
2022-11-03T06:16:14.068Z,27.54
2022-11-03T06:18:42.402Z,27.57
2022-11-03T06:21:20.590Z,27.57
2022-11-03T06:23:49.565Z,27.60
2022-11-03T06:26:25.499Z,27.61
2022-11-03T06:28:54.258Z,27.63
2022-11-03T06:31:25.211Z,27.66
2022-11-03T06:33:54.237Z,27.66
2022-11-03T06:36:26.159Z,27.65
2022-11-03T06:39:21.156Z,27.66
2022-11-03T06:41:49.572Z,27.68
2022-11-03T06:44:25.868Z,27.68
2022-11-03T06:47:08.241Z,27.70
2022-11-03T06:49:37.382Z,27.76
2022-11-03T06:52:44.599Z,27.77
2022-11-03T06:55:15.788Z,27.80
2022-11-03T06:57:49.298Z,27.79
2022-11-03T07:00:40.184Z,27.78
2022-11-03T07:03:32.305Z,27.81
2022-11-03T07:06:22.477Z,27.83
2022-11-03T07:08:54.949Z,27.83
2022-11-03T07:11:26.205Z,27.82
2022-11-03T07:13:58.854Z,27.82
2022-11-03T07:16:34.675Z,27.81
2022-11-03T07:19:07.325Z,27.82
2022-11-03T07:21:38.398Z,27.83
2022-11-03T07:24:17.397Z,27.85
2022-11-03T07:26:45.975Z,27.83
2022-11-03T07:29:23.253Z,27.85
2022-11-03T07:31:55.214Z,27.86
2022-11-03T07:34:33.002Z,27.87
2022-11-03T07:37:02.159Z,27.89
2022-11-03T07:39:37.365Z,27.85
2022-11-03T07:42:19.123Z,27.85
2022-11-03T07:44:48.759Z,27.88
2022-11-03T07:47:27.074Z,27.86
2022-11-03T07:49:58.629Z,27.85
2022-11-03T07:52:28.601Z,27.84
2022-11-03T07:55:00.757Z,27.84
2022-11-03T07:57:33.354Z,27.85
2022-11-03T08:00:23.629Z,27.87
2022-11-03T08:03:03.795Z,27.85
2022-11-03T08:05:32.185Z,27.85
2022-11-03T08:08:00.536Z,27.85
2022-11-03T08:10:36.179Z,27.84
2022-11-03T08:13:05.038Z,27.83
2022-11-03T08:15:33.614Z,27.81
2022-11-03T08:18:01.966Z,27.78
2022-11-03T08:20:30.270Z,27.75
2022-11-03T08:23:24.189Z,27.72
2022-11-03T08:25:47.727Z,27.72
2022-11-03T08:28:16.568Z,27.73
2022-11-03T08:30:44.885Z,27.73
2022-11-03T08:33:13.249Z,27.74
2022-11-03T08:35:41.724Z,27.75
2022-11-03T08:38:10.371Z,27.72
2022-11-03T08:40:38.841Z,27.71
2022-11-03T08:43:07.715Z,27.71
2022-11-03T08:45:36.088Z,27.67
2022-11-03T08:48:04.980Z,27.65
2022-11-03T08:50:33.678Z,27.61
2022-11-03T08:53:02.432Z,27.57
2022-11-03T08:55:40.582Z,27.52
2022-11-03T08:58:09.130Z,27.48
2022-11-03T09:00:40.964Z,27.43
2022-11-03T09:03:09.924Z,27.37
2022-11-03T09:05:38.364Z,27.33
2022-11-03T09:10:56.562Z,27.23
2022-11-03T09:13:25.174Z,27.17
2022-11-03T09:15:53.849Z,27.13
2022-11-03T09:18:23.138Z,27.08
2022-11-03T09:20:51.455Z,27.04
2022-11-03T09:23:19.810Z,26.98
2022-11-03T09:25:48.238Z,26.93
2022-11-03T09:28:16.576Z,26.88
2022-11-03T09:30:44.953Z,26.83
2022-11-03T09:33:13.299Z,26.78
2022-11-03T09:35:41.661Z,26.75
2022-11-03T09:38:10.233Z,26.70
2022-11-03T09:40:39.109Z,26.66
2022-11-03T09:43:07.880Z,26.61
2022-11-03T09:45:36.495Z,26.56
2022-11-03T09:48:05.105Z,26.49
2022-11-03T09:50:34.175Z,26.45
2022-11-03T09:53:02.517Z,26.39
2022-11-03T09:55:30.895Z,26.34
2022-11-03T09:58:02.338Z,26.28
2022-11-03T10:00:30.800Z,26.22
2022-11-03T10:02:59.202Z,26.16
2022-11-03T10:05:29.607Z,26.11
2022-11-03T10:08:05.167Z,26.05
2022-11-03T10:10:35.120Z,26.00
2022-11-03T10:13:05.460Z,25.95
2022-11-03T10:15:34.535Z,25.90
2022-11-03T10:18:03.107Z,25.83
2022-11-03T10:20:31.528Z,25.79
2022-11-03T10:22:59.920Z,25.72
2022-11-03T10:25:38.932Z,25.66
2022-11-03T10:28:22.311Z,25.60
2022-11-03T10:31:16.556Z,25.52
2022-11-03T10:33:56.500Z,25.45
2022-11-03T10:36:27.676Z,25.37
2022-11-03T10:38:56.843Z,25.31
2022-11-03T10:41:30.899Z,25.23
2022-11-03T10:44:06.721Z,25.17
2022-11-03T10:46:51.551Z,25.10
2022-11-03T10:49:21.593Z,25.03
2022-11-03T10:51:55.289Z,24.96
2022-11-03T10:54:25.562Z,24.90
2022-11-03T10:56:54.287Z,24.84
2022-11-03T10:59:32.403Z,24.80
2022-11-03T11:02:02.270Z,24.73
2022-11-03T11:04:33.610Z,24.68
2022-11-03T11:07:02.024Z,24.62
2022-11-03T11:09:30.728Z,24.55
2022-11-03T11:12:06.695Z,24.49
2022-11-03T11:14:40.689Z,24.42
2022-11-03T11:17:40.518Z,24.33
2022-11-03T11:22:51.968Z,24.22
2022-11-03T11:25:20.715Z,24.17
2022-11-03T11:27:58.580Z,24.12
2022-11-03T11:30:36.668Z,24.07
2022-11-03T11:33:23.984Z,24.00
2022-11-03T11:35:56.544Z,23.93
2022-11-03T11:38:56.613Z,23.87
2022-11-03T11:42:03.678Z,23.82
2022-11-03T11:44:41.387Z,23.76
2022-11-03T11:47:46.603Z,23.69
2022-11-03T11:50:26.822Z,23.61
2022-11-03T11:53:10.909Z,23.58
2022-11-03T11:55:50.067Z,23.53
2022-11-03T11:58:46.046Z,23.51
2022-11-03T12:01:31.757Z,23.48
2022-11-03T12:04:07.078Z,23.44
2022-11-03T12:09:14.313Z,23.38
2022-11-03T12:12:04.897Z,23.37
2022-11-03T12:14:40.057Z,23.32
2022-11-03T12:17:20.203Z,23.27
2022-11-03T12:19:51.998Z,23.24
2022-11-03T12:22:29.117Z,23.19
2022-11-03T12:24:57.440Z,23.13
2022-11-03T12:27:25.825Z,23.10
2022-11-03T12:29:56.106Z,23.04
2022-11-03T12:32:33.792Z,23.00
2022-11-03T12:35:09.288Z,22.96
2022-11-03T12:37:38.378Z,22.91
2022-11-03T12:40:07.697Z,22.87
2022-11-03T12:42:36.239Z,22.83
2022-11-03T12:45:05.190Z,22.77
2022-11-03T12:47:33.549Z,22.72
2022-11-03T12:50:01.879Z,22.68
2022-11-03T12:52:30.237Z,22.63
2022-11-03T12:54:58.619Z,22.60
2022-11-03T12:57:27.033Z,22.57
2022-11-03T12:59:55.541Z,22.53
2022-11-03T13:02:24.060Z,22.51
2022-11-03T13:04:52.542Z,22.49
2022-11-03T13:07:26.783Z,22.46
2022-11-03T13:09:57.527Z,22.44
2022-11-03T13:12:36.151Z,22.42
2022-11-03T13:15:07.930Z,22.42
2022-11-03T13:17:59.336Z,22.39
2022-11-03T13:20:24.721Z,22.39
2022-11-03T13:22:53.361Z,22.38
2022-11-03T13:25:21.860Z,22.35
2022-11-03T13:27:54.794Z,22.31
2022-11-03T13:30:24.499Z,22.29
2022-11-03T13:32:53.407Z,22.27
2022-11-03T13:35:21.816Z,22.24
2022-11-03T13:37:50.801Z,22.19
2022-11-03T13:40:50.447Z,22.16
2022-11-03T13:43:08.083Z,22.10
2022-11-03T13:45:36.663Z,22.05
2022-11-03T13:50:54.581Z,21.99
2022-11-03T13:56:16.943Z,21.94
2022-11-03T14:01:38.958Z,21.90
2022-11-03T14:06:56.446Z,21.88
2022-11-03T14:09:25.435Z,21.87
2022-11-03T14:12:12.284Z,21.85
2022-11-03T14:14:40.598Z,21.83
2022-11-03T14:17:09.181Z,21.82
2022-11-03T14:19:43.775Z,21.80
2022-11-03T14:22:13.360Z,21.79
2022-11-03T14:24:42.165Z,21.77
2022-11-03T14:27:11.135Z,21.74
2022-11-03T14:29:39.696Z,21.72
2022-11-03T14:32:08.051Z,21.73
2022-11-03T14:34:36.571Z,21.72
2022-11-03T14:37:05.609Z,21.71
2022-11-03T14:39:34.033Z,21.71
2022-11-03T14:42:05.253Z,21.70
2022-11-03T14:44:37.439Z,21.70
2022-11-03T14:47:08.362Z,21.69
2022-11-03T14:49:37.316Z,21.67
2022-11-03T14:52:08.179Z,21.67
2022-11-03T14:54:37.421Z,21.66
2022-11-03T14:57:06.339Z,21.64
2022-11-03T14:59:35.738Z,21.60
2022-11-03T15:02:04.937Z,21.59
2022-11-03T15:04:33.519Z,21.56
2022-11-03T15:07:02.492Z,21.55
2022-11-03T15:09:30.864Z,21.53
2022-11-03T15:11:59.178Z,21.51
2022-11-03T15:14:27.514Z,21.49
2022-11-03T15:16:55.886Z,21.48
2022-11-03T15:19:24.329Z,21.47
2022-11-03T15:21:52.645Z,21.44
2022-11-03T15:27:09.272Z,21.42
2022-11-03T15:29:38.517Z,21.40
2022-11-03T15:32:07.791Z,21.40
2022-11-03T15:34:36.103Z,21.40
2022-11-03T15:37:04.440Z,21.40
2022-11-03T15:39:34.069Z,21.39
2022-11-03T15:42:02.590Z,21.37
2022-11-03T15:44:31.089Z,21.36
2022-11-03T15:46:59.412Z,21.34
2022-11-03T15:49:27.767Z,21.32
2022-11-03T15:51:56.060Z,21.32
2022-11-03T15:54:24.436Z,21.30
2022-11-03T15:56:52.759Z,21.29
2022-11-03T15:59:21.093Z,21.28
2022-11-03T16:01:49.501Z,21.27
2022-11-03T16:04:17.891Z,21.26
2022-11-03T16:07:06.876Z,21.24
2022-11-03T16:09:34.689Z,21.22
2022-11-03T16:12:03.160Z,21.21
2022-11-03T16:14:31.986Z,21.19
2022-11-03T16:17:00.619Z,21.19
2022-11-03T16:19:28.965Z,21.17
2022-11-03T16:21:57.301Z,21.17
2022-11-03T16:24:33.327Z,21.17
2022-11-03T16:27:04.044Z,21.18
2022-11-03T16:29:32.378Z,21.17
2022-11-03T16:32:00.652Z,21.15
2022-11-03T16:34:29.409Z,21.14
2022-11-03T16:36:57.853Z,21.12
2022-11-03T16:39:26.251Z,21.11
2022-11-03T16:41:55.904Z,21.10
2022-11-03T16:44:24.299Z,21.06
2022-11-03T16:46:52.674Z,21.05
2022-11-03T16:49:21.089Z,21.02
2022-11-03T16:51:49.450Z,20.99
2022-11-03T16:54:18.084Z,21.00
2022-11-03T16:56:50.567Z,20.96
2022-11-03T16:59:24.529Z,20.95
2022-11-03T17:01:52.969Z,20.94
2022-11-03T17:04:21.416Z,20.93
2022-11-03T17:06:49.760Z,20.91
2022-11-03T17:09:18.143Z,20.89
2022-11-03T17:11:46.428Z,20.85
2022-11-03T17:14:14.802Z,20.86
2022-11-03T17:16:47.644Z,20.86
2022-11-03T17:19:16.892Z,20.84
2022-11-03T17:21:45.211Z,20.82
2022-11-03T17:24:14.207Z,20.81
2022-11-03T17:27:00.372Z,20.78
2022-11-03T17:29:51.542Z,20.77
2022-11-03T17:32:44.276Z,20.76
2022-11-03T17:35:18.356Z,20.74
2022-11-03T17:37:46.960Z,20.73
2022-11-03T17:40:21.393Z,20.71
2022-11-03T17:42:50.565Z,20.71
2022-11-03T17:45:21.715Z,20.70
2022-11-03T17:47:50.795Z,20.68
2022-11-03T17:50:22.310Z,20.66
2022-11-03T17:52:52.219Z,20.65
2022-11-03T17:55:32.715Z,20.63
2022-11-03T17:58:04.961Z,20.63
2022-11-03T18:00:33.423Z,20.60
2022-11-03T18:03:01.821Z,20.61
2022-11-03T18:05:32.296Z,20.61
2022-11-03T18:08:03.108Z,20.60
2022-11-03T18:10:39.260Z,20.59
2022-11-03T18:13:17.477Z,20.59
2022-11-03T18:15:52.128Z,20.56
2022-11-03T18:18:42.993Z,20.55
2022-11-03T18:21:23.448Z,20.54
2022-11-03T18:23:51.905Z,20.53
2022-11-03T18:26:26.544Z,20.53
2022-11-03T18:28:55.317Z,20.53
2022-11-03T18:31:45.180Z,20.53
2022-11-03T18:34:23.657Z,20.53
2022-11-03T18:36:53.564Z,20.52
2022-11-03T18:39:26.447Z,20.53
2022-11-03T18:41:55.117Z,20.49
2022-11-03T18:44:25.153Z,20.48
2022-11-03T18:46:55.502Z,20.47
2022-11-03T18:49:24.997Z,20.45
2022-11-03T18:52:02.466Z,20.43
2022-11-03T18:54:32.435Z,20.42
2022-11-03T18:57:01.504Z,20.41
2022-11-03T18:59:40.075Z,20.38
2022-11-03T19:02:21.428Z,20.36
2022-11-03T19:04:50.402Z,20.35
2022-11-03T19:07:30.525Z,20.33
2022-11-03T19:09:59.145Z,20.32
2022-11-03T19:12:27.522Z,20.30
2022-11-03T19:14:55.970Z,20.28
2022-11-03T19:17:26.357Z,20.25
2022-11-03T19:19:55.222Z,20.23
2022-11-03T19:22:24.971Z,20.21
2022-11-03T19:24:53.486Z,20.18
2022-11-03T19:27:29.838Z,20.14
2022-11-03T19:30:00.819Z,20.12
2022-11-03T19:32:41.372Z,20.12
2022-11-03T19:35:19.049Z,20.10
2022-11-03T19:37:53.327Z,20.09
2022-11-03T19:40:22.062Z,20.09
2022-11-03T19:42:50.415Z,20.09
2022-11-03T19:45:21.548Z,20.09
2022-11-03T19:50:49.609Z,20.09
2022-11-03T19:53:30.252Z,20.08
2022-11-03T19:55:59.401Z,20.06
2022-11-03T19:58:30.104Z,20.03
2022-11-03T20:00:59.441Z,20.02
2022-11-03T20:03:30.042Z,19.99
2022-11-03T20:05:59.286Z,19.97
2022-11-03T20:08:30.626Z,19.95
2022-11-03T20:10:59.370Z,19.94
2022-11-03T20:13:31.694Z,19.93
2022-11-03T20:16:01.315Z,19.93
2022-11-03T20:18:30.268Z,19.91
2022-11-03T20:20:59.654Z,19.92
2022-11-03T20:23:31.572Z,19.90
2022-11-03T20:26:01.675Z,19.91
2022-11-03T20:28:33.162Z,19.89
2022-11-03T20:31:04.762Z,19.88
2022-11-03T20:33:33.207Z,19.88
2022-11-03T20:36:02.981Z,19.88
2022-11-03T20:38:32.388Z,19.88
2022-11-03T20:41:07.615Z,19.87
2022-11-03T20:43:44.941Z,19.86
2022-11-03T20:46:33.704Z,19.85
2022-11-03T20:49:02.126Z,19.83
2022-11-03T20:51:35.985Z,19.82
2022-11-03T20:54:05.487Z,19.81
2022-11-03T20:56:33.829Z,19.79
2022-11-03T20:59:02.354Z,19.77
2022-11-03T21:01:35.109Z,19.74
2022-11-03T21:04:04.727Z,19.74
2022-11-03T21:06:34.193Z,19.71
2022-11-03T21:09:02.886Z,19.70
2022-11-03T21:11:40.683Z,19.68
2022-11-03T21:14:30.733Z,19.66
2022-11-03T21:17:17.343Z,19.64
2022-11-03T21:20:02.871Z,19.62
2022-11-03T21:22:51.857Z,19.61
2022-11-03T21:25:23.709Z,19.60
2022-11-03T21:27:52.807Z,19.61
2022-11-03T21:30:21.262Z,19.59
2022-11-03T21:32:49.645Z,19.58
2022-11-03T21:35:22.021Z,19.57
2022-11-03T21:37:50.843Z,19.56
2022-11-03T21:40:19.299Z,19.56
2022-11-03T21:43:05.731Z,19.55
2022-11-03T21:45:34.406Z,19.54
2022-11-03T21:48:21.605Z,19.54
2022-11-03T21:50:50.651Z,19.53
2022-11-03T21:53:19.127Z,19.54
2022-11-03T21:55:50.737Z,19.52
2022-11-03T21:58:19.100Z,19.52
2022-11-03T22:00:48.102Z,19.52
2022-11-03T22:03:16.739Z,19.51
2022-11-03T22:05:45.186Z,19.49
2022-11-03T22:08:13.793Z,19.47
2022-11-03T22:10:42.343Z,19.44
2022-11-03T22:13:10.964Z,19.42
2022-11-03T22:15:57.793Z,19.41
2022-11-03T22:18:26.469Z,19.38
2022-11-03T22:21:12.898Z,19.37
2022-11-03T22:23:59.456Z,19.35
2022-11-03T22:26:45.950Z,19.34
2022-11-03T22:29:32.893Z,19.33
2022-11-03T22:32:01.206Z,19.31
2022-11-03T22:34:47.821Z,19.31
2022-11-03T22:37:16.155Z,19.30
2022-11-03T22:40:02.720Z,19.30
2022-11-03T22:42:49.342Z,19.30
2022-11-03T22:45:35.990Z,19.29
2022-11-03T22:48:05.673Z,19.30
2022-11-03T22:50:34.326Z,19.30
2022-11-03T22:53:22.488Z,19.31
2022-11-03T22:55:50.847Z,19.29
2022-11-03T22:58:19.748Z,19.28
2022-11-03T23:00:48.476Z,19.27
2022-11-03T23:03:16.837Z,19.25
2022-11-03T23:05:45.180Z,19.24
2022-11-03T23:08:13.484Z,19.23
2022-11-03T23:10:41.859Z,19.22
2022-11-03T23:13:10.366Z,19.20
2022-11-03T23:15:44.532Z,19.19
2022-11-03T23:18:31.152Z,19.19
2022-11-03T23:21:08.467Z,19.18
2022-11-03T23:23:57.165Z,19.18
2022-11-03T23:26:28.026Z,19.18
2022-11-03T23:28:56.508Z,19.19
2022-11-03T23:31:24.823Z,19.20
2022-11-03T23:33:53.548Z,19.22
2022-11-03T23:36:22.239Z,19.24
2022-11-03T23:38:50.566Z,19.29
2022-11-03T23:41:20.457Z,19.31
2022-11-03T23:43:48.863Z,19.33
2022-11-03T23:46:41.052Z,19.36
2022-11-03T23:49:09.805Z,19.38
2022-11-03T23:51:40.400Z,19.42
2022-11-03T23:54:10.644Z,19.44
2022-11-03T23:57:02.448Z,19.47
2022-11-03T23:59:32.510Z,19.50
